sensor_id;sensor_type;location;lat;lon;timestamp;P1;durP1;ratioP1;P2;durP2;ratioP2
2338;SDS011;1180;51.438;6.978;2023-05-15T00:01:04;16.57;;;14.97;;
2338;SDS011;1180;51.438;6.978;2023-05-15T00:03:29;14.97;;;12.30;;
2338;SDS011;1180;51.438;6.978;2023-05-15T00:05:55;15.63;;;14.03;;
2338;SDS011;1180;51.438;6.978;2023-05-15T00:08:21;16.00;;;14.30;;
2338;SDS011;1180;51.438;6.978;2023-05-15T00:10:47;18.40;;;15.27;;
2338;SDS011;1180;51.438;6.978;2023-05-15T00:13:12;15.00;;;13.50;;
2338;SDS011;1180;51.438;6.978;2023-05-15T00:15:38;17.37;;;13.77;;
2338;SDS011;1180;51.438;6.978;2023-05-15T00:18:03;16.87;;;14.47;;
2338;SDS011;1180;51.438;6.978;2023-05-15T00:20:29;16.50;;;14.80;;
2338;SDS011;1180;51.438;6.978;2023-05-15T00:22:54;15.30;;;13.83;;
2338;SDS011;1180;51.438;6.978;2023-05-15T00:25:20;17.23;;;14.53;;
2338;SDS011;1180;51.438;6.978;2023-05-15T00:27:46;19.80;;;14.73;;
2338;SDS011;1180;51.438;6.978;2023-05-15T00:30:12;17.77;;;15.87;;
2338;SDS011;1180;51.438;6.978;2023-05-15T00:32:38;16.13;;;14.53;;
2338;SDS011;1180;51.438;6.978;2023-05-15T00:35:04;19.40;;;17.10;;
2338;SDS011;1180;51.438;6.978;2023-05-15T00:37:30;16.67;;;14.10;;
2338;SDS011;1180;51.438;6.978;2023-05-15T00:39:56;16.17;;;14.43;;
2338;SDS011;1180;51.438;6.978;2023-05-15T00:42:22;15.50;;;13.90;;
2338;SDS011;1180;51.438;6.978;2023-05-15T00:44:48;15.73;;;14.23;;
2338;SDS011;1180;51.438;6.978;2023-05-15T00:47:14;18.57;;;16.13;;
2338;SDS011;1180;51.438;6.978;2023-05-15T00:49:40;18.17;;;16.10;;
2338;SDS011;1180;51.438;6.978;2023-05-15T00:52:07;15.13;;;13.63;;
2338;SDS011;1180;51.438;6.978;2023-05-15T00:54:33;16.20;;;14.00;;
2338;SDS011;1180;51.438;6.978;2023-05-15T00:56:59;13.93;;;12.53;;
2338;SDS011;1180;51.438;6.978;2023-05-15T00:59:27;18.20;;;13.60;;
2338;SDS011;1180;51.438;6.978;2023-05-15T01:01:54;14.80;;;13.17;;
2338;SDS011;1180;51.438;6.978;2023-05-15T01:04:19;18.03;;;14.90;;
2338;SDS011;1180;51.438;6.978;2023-05-15T01:06:45;16.53;;;14.20;;
2338;SDS011;1180;51.438;6.978;2023-05-15T01:09:13;15.73;;;14.07;;
2338;SDS011;1180;51.438;6.978;2023-05-15T01:11:39;15.43;;;13.93;;
2338;SDS011;1180;51.438;6.978;2023-05-15T01:14:06;16.90;;;12.20;;
2338;SDS011;1180;51.438;6.978;2023-05-15T01:16:33;18.67;;;14.53;;
2338;SDS011;1180;51.438;6.978;2023-05-15T01:19:00;15.93;;;14.23;;
2338;SDS011;1180;51.438;6.978;2023-05-15T01:27:05;19.00;;;16.83;;
2338;SDS011;1180;51.438;6.978;2023-05-15T01:29:40;19.10;;;17.10;;
2338;SDS011;1180;51.438;6.978;2023-05-15T01:32:23;19.30;;;17.30;;
2338;SDS011;1180;51.438;6.978;2023-05-15T01:35:04;19.57;;;17.47;;
2338;SDS011;1180;51.438;6.978;2023-05-15T01:37:38;22.67;;;17.97;;
2338;SDS011;1180;51.438;6.978;2023-05-15T01:40:06;18.90;;;17.00;;
2338;SDS011;1180;51.438;6.978;2023-05-15T01:42:34;27.20;;;20.30;;
2338;SDS011;1180;51.438;6.978;2023-05-15T01:45:02;21.50;;;18.43;;
2338;SDS011;1180;51.438;6.978;2023-05-15T01:47:45;22.47;;;18.80;;
2338;SDS011;1180;51.438;6.978;2023-05-15T01:50:13;19.57;;;17.63;;
2338;SDS011;1180;51.438;6.978;2023-05-15T01:52:42;21.23;;;18.93;;
2338;SDS011;1180;51.438;6.978;2023-05-15T01:55:11;25.03;;;21.87;;
2338;SDS011;1180;51.438;6.978;2023-05-15T01:57:39;31.10;;;22.67;;
2338;SDS011;1180;51.438;6.978;2023-05-15T02:00:06;30.20;;;23.60;;
2338;SDS011;1180;51.438;6.978;2023-05-15T02:02:34;26.07;;;22.23;;
2338;SDS011;1180;51.438;6.978;2023-05-15T02:05:01;29.63;;;23.60;;
2338;SDS011;1180;51.438;6.978;2023-05-15T02:07:27;34.83;;;26.67;;
2338;SDS011;1180;51.438;6.978;2023-05-15T02:09:53;35.30;;;26.20;;
2338;SDS011;1180;51.438;6.978;2023-05-15T02:12:20;35.40;;;27.17;;
2338;SDS011;1180;51.438;6.978;2023-05-15T02:14:45;37.50;;;27.50;;
2338;SDS011;1180;51.438;6.978;2023-05-15T02:17:13;37.37;;;29.20;;
2338;SDS011;1180;51.438;6.978;2023-05-15T02:19:39;38.33;;;27.37;;
2338;SDS011;1180;51.438;6.978;2023-05-15T02:22:04;37.53;;;27.43;;
2338;SDS011;1180;51.438;6.978;2023-05-15T02:24:30;41.90;;;30.23;;
2338;SDS011;1180;51.438;6.978;2023-05-15T02:27:02;48.47;;;32.67;;
2338;SDS011;1180;51.438;6.978;2023-05-15T02:29:36;44.67;;;30.03;;
2338;SDS011;1180;51.438;6.978;2023-05-15T02:37:45;43.57;;;30.60;;
2338;SDS011;1180;51.438;6.978;2023-05-15T02:40:13;51.50;;;33.03;;
2338;SDS011;1180;51.438;6.978;2023-05-15T02:42:40;52.70;;;34.47;;
2338;SDS011;1180;51.438;6.978;2023-05-15T02:45:07;57.87;;;35.70;;
2338;SDS011;1180;51.438;6.978;2023-05-15T02:47:34;52.20;;;34.37;;
2338;SDS011;1180;51.438;6.978;2023-05-15T02:50:01;45.80;;;32.00;;
2338;SDS011;1180;51.438;6.978;2023-05-15T02:52:28;41.53;;;28.80;;
2338;SDS011;1180;51.438;6.978;2023-05-15T02:54:53;43.67;;;30.87;;
2338;SDS011;1180;51.438;6.978;2023-05-15T02:57:19;39.77;;;28.00;;
2338;SDS011;1180;51.438;6.978;2023-05-15T02:59:44;48.87;;;30.77;;
2338;SDS011;1180;51.438;6.978;2023-05-15T03:02:09;32.27;;;27.23;;
2338;SDS011;1180;51.438;6.978;2023-05-15T03:04:35;35.30;;;27.97;;
2338;SDS011;1180;51.438;6.978;2023-05-15T03:07:01;40.10;;;27.67;;
2338;SDS011;1180;51.438;6.978;2023-05-15T03:09:26;35.80;;;28.37;;
2338;SDS011;1180;51.438;6.978;2023-05-15T03:11:52;36.93;;;26.90;;
2338;SDS011;1180;51.438;6.978;2023-05-15T03:14:17;41.93;;;29.53;;
2338;SDS011;1180;51.438;6.978;2023-05-15T03:16:42;35.00;;;27.13;;
2338;SDS011;1180;51.438;6.978;2023-05-15T03:19:08;40.00;;;28.13;;
2338;SDS011;1180;51.438;6.978;2023-05-15T03:21:33;42.20;;;29.07;;
2338;SDS011;1180;51.438;6.978;2023-05-15T03:23:59;41.47;;;29.23;;
2338;SDS011;1180;51.438;6.978;2023-05-15T03:26:25;43.87;;;29.60;;
2338;SDS011;1180;51.438;6.978;2023-05-15T03:28:50;43.13;;;30.53;;
2338;SDS011;1180;51.438;6.978;2023-05-15T03:31:16;46.10;;;30.00;;
2338;SDS011;1180;51.438;6.978;2023-05-15T03:33:41;40.23;;;28.30;;
2338;SDS011;1180;51.438;6.978;2023-05-15T03:36:09;47.97;;;32.73;;
2338;SDS011;1180;51.438;6.978;2023-05-15T03:38:35;35.37;;;26.90;;
2338;SDS011;1180;51.438;6.978;2023-05-15T03:41:00;31.83;;;24.40;;
2338;SDS011;1180;51.438;6.978;2023-05-15T03:43:26;27.33;;;23.73;;
2338;SDS011;1180;51.438;6.978;2023-05-15T03:45:52;35.93;;;25.00;;
2338;SDS011;1180;51.438;6.978;2023-05-15T03:48:17;29.43;;;24.10;;
2338;SDS011;1180;51.438;6.978;2023-05-15T03:50:43;33.37;;;24.50;;
2338;SDS011;1180;51.438;6.978;2023-05-15T03:53:09;25.67;;;23.00;;
2338;SDS011;1180;51.438;6.978;2023-05-15T03:55:34;26.83;;;23.87;;
2338;SDS011;1180;51.438;6.978;2023-05-15T03:58:00;31.63;;;24.67;;
2338;SDS011;1180;51.438;6.978;2023-05-15T04:00:26;28.70;;;24.10;;
2338;SDS011;1180;51.438;6.978;2023-05-15T04:02:51;26.40;;;22.17;;
2338;SDS011;1180;51.438;6.978;2023-05-15T04:05:17;26.83;;;23.93;;
2338;SDS011;1180;51.438;6.978;2023-05-15T04:07:43;30.10;;;24.70;;
2338;SDS011;1180;51.438;6.978;2023-05-15T04:10:09;25.40;;;22.27;;
2338;SDS011;1180;51.438;6.978;2023-05-15T04:12:35;24.97;;;22.10;;
2338;SDS011;1180;51.438;6.978;2023-05-15T04:17:43;28.17;;;22.17;;
2338;SDS011;1180;51.438;6.978;2023-05-15T04:20:09;28.13;;;24.20;;
2338;SDS011;1180;51.438;6.978;2023-05-15T04:22:35;27.50;;;23.20;;
2338;SDS011;1180;51.438;6.978;2023-05-15T04:25:01;27.17;;;22.93;;
2338;SDS011;1180;51.438;6.978;2023-05-15T04:27:26;28.47;;;23.80;;
2338;SDS011;1180;51.438;6.978;2023-05-15T04:29:51;33.00;;;27.10;;
2338;SDS011;1180;51.438;6.978;2023-05-15T04:32:17;34.30;;;27.70;;
2338;SDS011;1180;51.438;6.978;2023-05-15T04:34:42;34.30;;;28.87;;
2338;SDS011;1180;51.438;6.978;2023-05-15T04:37:09;35.53;;;27.70;;
2338;SDS011;1180;51.438;6.978;2023-05-15T04:39:34;35.73;;;28.87;;
2338;SDS011;1180;51.438;6.978;2023-05-15T04:42:00;36.50;;;27.90;;
2338;SDS011;1180;51.438;6.978;2023-05-15T04:44:26;37.63;;;31.27;;
2338;SDS011;1180;51.438;6.978;2023-05-15T04:46:51;36.53;;;28.77;;
2338;SDS011;1180;51.438;6.978;2023-05-15T04:49:17;34.27;;;27.47;;
2338;SDS011;1180;51.438;6.978;2023-05-15T04:51:42;46.03;;;32.63;;
2338;SDS011;1180;51.438;6.978;2023-05-15T04:54:07;47.90;;;34.27;;
2338;SDS011;1180;51.438;6.978;2023-05-15T04:56:32;44.60;;;33.67;;
2338;SDS011;1180;51.438;6.978;2023-05-15T04:58:58;48.90;;;35.87;;
2338;SDS011;1180;51.438;6.978;2023-05-15T05:01:23;59.93;;;43.77;;
2338;SDS011;1180;51.438;6.978;2023-05-15T05:03:49;60.10;;;46.30;;
2338;SDS011;1180;51.438;6.978;2023-05-15T05:06:14;54.57;;;42.60;;
2338;SDS011;1180;51.438;6.978;2023-05-15T05:08:39;62.20;;;44.57;;
2338;SDS011;1180;51.438;6.978;2023-05-15T05:11:04;65.30;;;47.90;;
2338;SDS011;1180;51.438;6.978;2023-05-15T05:13:30;73.43;;;52.20;;
2338;SDS011;1180;51.438;6.978;2023-05-15T05:15:55;78.77;;;52.50;;
2338;SDS011;1180;51.438;6.978;2023-05-15T05:18:20;85.87;;;53.43;;
2338;SDS011;1180;51.438;6.978;2023-05-15T05:20:46;84.03;;;55.83;;
2338;SDS011;1180;51.438;6.978;2023-05-15T05:23:11;88.67;;;55.13;;
2338;SDS011;1180;51.438;6.978;2023-05-15T05:25:38;90.10;;;54.10;;
2338;SDS011;1180;51.438;6.978;2023-05-15T05:28:04;81.60;;;52.53;;
2338;SDS011;1180;51.438;6.978;2023-05-15T05:30:29;93.30;;;56.53;;
2338;SDS011;1180;51.438;6.978;2023-05-15T05:32:56;83.97;;;56.13;;
2338;SDS011;1180;51.438;6.978;2023-05-15T05:35:21;88.27;;;54.73;;
2338;SDS011;1180;51.438;6.978;2023-05-15T05:37:46;81.90;;;51.90;;
2338;SDS011;1180;51.438;6.978;2023-05-15T05:40:12;90.27;;;57.40;;
2338;SDS011;1180;51.438;6.978;2023-05-15T05:42:37;90.83;;;56.50;;
2338;SDS011;1180;51.438;6.978;2023-05-15T05:45:03;83.63;;;49.53;;
2338;SDS011;1180;51.438;6.978;2023-05-15T05:47:30;104.13;;;60.40;;
2338;SDS011;1180;51.438;6.978;2023-05-15T05:49:55;93.97;;;58.93;;
2338;SDS011;1180;51.438;6.978;2023-05-15T05:52:21;102.77;;;64.00;;
2338;SDS011;1180;51.438;6.978;2023-05-15T05:54:46;102.13;;;61.00;;
2338;SDS011;1180;51.438;6.978;2023-05-15T05:57:12;98.33;;;59.67;;
2338;SDS011;1180;51.438;6.978;2023-05-15T05:59:38;99.03;;;58.83;;
2338;SDS011;1180;51.438;6.978;2023-05-15T06:02:04;90.60;;;57.53;;
2338;SDS011;1180;51.438;6.978;2023-05-15T06:04:30;92.87;;;58.23;;
2338;SDS011;1180;51.438;6.978;2023-05-15T06:06:57;92.07;;;58.33;;
2338;SDS011;1180;51.438;6.978;2023-05-15T06:09:23;83.80;;;54.50;;
2338;SDS011;1180;51.438;6.978;2023-05-15T06:11:48;80.57;;;52.33;;
2338;SDS011;1180;51.438;6.978;2023-05-15T06:14:14;84.30;;;51.20;;
2338;SDS011;1180;51.438;6.978;2023-05-15T06:16:39;82.53;;;54.17;;
2338;SDS011;1180;51.438;6.978;2023-05-15T06:19:04;92.47;;;58.03;;
2338;SDS011;1180;51.438;6.978;2023-05-15T06:21:30;96.40;;;55.37;;
2338;SDS011;1180;51.438;6.978;2023-05-15T06:23:55;83.27;;;51.60;;
2338;SDS011;1180;51.438;6.978;2023-05-15T06:26:21;81.60;;;52.73;;
2338;SDS011;1180;51.438;6.978;2023-05-15T06:28:46;84.93;;;53.00;;
2338;SDS011;1180;51.438;6.978;2023-05-15T06:31:12;74.00;;;49.60;;
2338;SDS011;1180;51.438;6.978;2023-05-15T06:33:37;72.73;;;49.70;;
2338;SDS011;1180;51.438;6.978;2023-05-15T06:36:03;69.43;;;50.50;;
2338;SDS011;1180;51.438;6.978;2023-05-15T06:38:28;70.67;;;48.73;;
2338;SDS011;1180;51.438;6.978;2023-05-15T06:40:54;72.07;;;49.10;;
2338;SDS011;1180;51.438;6.978;2023-05-15T06:43:20;73.03;;;50.77;;
2338;SDS011;1180;51.438;6.978;2023-05-15T06:45:45;73.87;;;49.60;;
2338;SDS011;1180;51.438;6.978;2023-05-15T06:48:10;73.40;;;49.50;;
2338;SDS011;1180;51.438;6.978;2023-05-15T06:50:36;64.10;;;45.57;;
2338;SDS011;1180;51.438;6.978;2023-05-15T06:53:01;66.63;;;45.77;;
2338;SDS011;1180;51.438;6.978;2023-05-15T06:55:27;66.50;;;45.57;;
2338;SDS011;1180;51.438;6.978;2023-05-15T06:57:52;54.17;;;41.33;;
2338;SDS011;1180;51.438;6.978;2023-05-15T07:00:18;58.13;;;42.43;;
2338;SDS011;1180;51.438;6.978;2023-05-15T07:02:43;57.43;;;42.37;;
2338;SDS011;1180;51.438;6.978;2023-05-15T07:05:09;49.50;;;39.20;;
2338;SDS011;1180;51.438;6.978;2023-05-15T07:07:35;52.83;;;37.50;;
2338;SDS011;1180;51.438;6.978;2023-05-15T07:10:00;45.23;;;36.50;;
2338;SDS011;1180;51.438;6.978;2023-05-15T07:12:26;48.77;;;37.40;;
2338;SDS011;1180;51.438;6.978;2023-05-15T07:14:51;40.23;;;32.77;;
2338;SDS011;1180;51.438;6.978;2023-05-15T07:17:17;43.87;;;30.07;;
2338;SDS011;1180;51.438;6.978;2023-05-15T07:19:43;29.73;;;25.90;;
2338;SDS011;1180;51.438;6.978;2023-05-15T07:22:09;25.70;;;22.90;;
2338;SDS011;1180;51.438;6.978;2023-05-15T07:24:34;28.17;;;22.57;;
2338;SDS011;1180;51.438;6.978;2023-05-15T07:27:00;26.53;;;21.47;;
2338;SDS011;1180;51.438;6.978;2023-05-15T07:29:26;25.27;;;20.17;;
2338;SDS011;1180;51.438;6.978;2023-05-15T07:31:51;29.63;;;23.97;;
2338;SDS011;1180;51.438;6.978;2023-05-15T07:34:17;32.03;;;25.90;;
2338;SDS011;1180;51.438;6.978;2023-05-15T07:36:42;32.50;;;26.97;;
2338;SDS011;1180;51.438;6.978;2023-05-15T07:39:07;29.30;;;24.17;;
2338;SDS011;1180;51.438;6.978;2023-05-15T07:41:33;23.97;;;19.03;;
2338;SDS011;1180;51.438;6.978;2023-05-15T07:43:58;18.03;;;16.23;;
2338;SDS011;1180;51.438;6.978;2023-05-15T07:46:24;19.17;;;16.93;;
2338;SDS011;1180;51.438;6.978;2023-05-15T07:48:50;19.23;;;16.90;;
2338;SDS011;1180;51.438;6.978;2023-05-15T07:51:15;29.77;;;20.50;;
2338;SDS011;1180;51.438;6.978;2023-05-15T07:53:40;26.40;;;20.90;;
2338;SDS011;1180;51.438;6.978;2023-05-15T07:56:06;24.37;;;20.77;;
2338;SDS011;1180;51.438;6.978;2023-05-15T07:58:31;27.93;;;22.10;;
2338;SDS011;1180;51.438;6.978;2023-05-15T08:00:59;27.90;;;23.77;;
2338;SDS011;1180;51.438;6.978;2023-05-15T08:03:24;31.70;;;25.60;;
2338;SDS011;1180;51.438;6.978;2023-05-15T08:05:50;24.20;;;21.70;;
2338;SDS011;1180;51.438;6.978;2023-05-15T08:08:15;19.07;;;17.10;;
2338;SDS011;1180;51.438;6.978;2023-05-15T08:10:41;21.17;;;16.53;;
2338;SDS011;1180;51.438;6.978;2023-05-15T08:13:06;21.00;;;18.53;;
2338;SDS011;1180;51.438;6.978;2023-05-15T08:15:31;22.87;;;20.57;;
2338;SDS011;1180;51.438;6.978;2023-05-15T08:17:57;19.97;;;18.00;;
2338;SDS011;1180;51.438;6.978;2023-05-15T08:20:22;23.63;;;19.47;;
2338;SDS011;1180;51.438;6.978;2023-05-15T08:22:47;27.30;;;23.90;;
2338;SDS011;1180;51.438;6.978;2023-05-15T08:25:13;27.67;;;23.10;;
2338;SDS011;1180;51.438;6.978;2023-05-15T08:27:38;28.33;;;24.20;;
2338;SDS011;1180;51.438;6.978;2023-05-15T08:30:04;27.20;;;21.17;;
2338;SDS011;1180;51.438;6.978;2023-05-15T08:32:30;21.90;;;17.70;;
2338;SDS011;1180;51.438;6.978;2023-05-15T08:34:55;27.43;;;21.90;;
2338;SDS011;1180;51.438;6.978;2023-05-15T08:37:22;21.10;;;18.50;;
2338;SDS011;1180;51.438;6.978;2023-05-15T08:39:47;18.13;;;16.20;;
2338;SDS011;1180;51.438;6.978;2023-05-15T08:42:23;19.23;;;17.23;;
2338;SDS011;1180;51.438;6.978;2023-05-15T08:44:57;18.30;;;16.27;;
2338;SDS011;1180;51.438;6.978;2023-05-15T08:47:24;19.10;;;16.43;;
2338;SDS011;1180;51.438;6.978;2023-05-15T08:50:01;19.87;;;17.87;;
2338;SDS011;1180;51.438;6.978;2023-05-15T08:52:32;18.30;;;16.40;;
2338;SDS011;1180;51.438;6.978;2023-05-15T08:54:58;20.73;;;16.70;;
2338;SDS011;1180;51.438;6.978;2023-05-15T08:57:25;19.20;;;17.03;;
2338;SDS011;1180;51.438;6.978;2023-05-15T08:59:50;19.60;;;16.90;;
2338;SDS011;1180;51.438;6.978;2023-05-15T09:02:18;24.20;;;19.27;;
2338;SDS011;1180;51.438;6.978;2023-05-15T09:04:45;17.70;;;15.73;;
2338;SDS011;1180;51.438;6.978;2023-05-15T09:07:10;20.20;;;16.80;;
2338;SDS011;1180;51.438;6.978;2023-05-15T09:09:36;18.17;;;14.73;;
2338;SDS011;1180;51.438;6.978;2023-05-15T09:12:03;20.23;;;15.80;;
2338;SDS011;1180;51.438;6.978;2023-05-15T09:14:29;19.03;;;14.67;;
2338;SDS011;1180;51.438;6.978;2023-05-15T09:16:54;16.63;;;14.80;;
2338;SDS011;1180;51.438;6.978;2023-05-15T09:19:21;16.20;;;14.50;;
2338;SDS011;1180;51.438;6.978;2023-05-15T09:21:47;20.90;;;16.60;;
2338;SDS011;1180;51.438;6.978;2023-05-15T09:24:16;18.87;;;16.53;;
2338;SDS011;1180;51.438;6.978;2023-05-15T09:26:44;17.77;;;14.40;;
2338;SDS011;1180;51.438;6.978;2023-05-15T09:29:11;14.30;;;12.90;;
2338;SDS011;1180;51.438;6.978;2023-05-15T09:31:40;14.10;;;12.10;;
2338;SDS011;1180;51.438;6.978;2023-05-15T09:34:05;13.80;;;11.90;;
2338;SDS011;1180;51.438;6.978;2023-05-15T09:36:33;13.63;;;12.20;;
2338;SDS011;1180;51.438;6.978;2023-05-15T09:38:59;14.77;;;13.23;;
2338;SDS011;1180;51.438;6.978;2023-05-15T09:41:25;14.43;;;12.90;;
2338;SDS011;1180;51.438;6.978;2023-05-15T09:43:52;15.67;;;13.60;;
2338;SDS011;1180;51.438;6.978;2023-05-15T09:46:20;14.23;;;12.90;;
2338;SDS011;1180;51.438;6.978;2023-05-15T09:48:46;13.67;;;11.43;;
2338;SDS011;1180;51.438;6.978;2023-05-15T09:51:15;14.00;;;12.10;;
2338;SDS011;1180;51.438;6.978;2023-05-15T09:53:47;14.27;;;12.40;;
2338;SDS011;1180;51.438;6.978;2023-05-15T09:56:14;15.57;;;13.17;;
2338;SDS011;1180;51.438;6.978;2023-05-15T09:58:50;15.43;;;12.63;;
2338;SDS011;1180;51.438;6.978;2023-05-15T10:01:20;16.03;;;13.30;;
2338;SDS011;1180;51.438;6.978;2023-05-15T10:04:00;13.40;;;11.20;;
2338;SDS011;1180;51.438;6.978;2023-05-15T10:06:34;13.23;;;11.93;;
2338;SDS011;1180;51.438;6.978;2023-05-15T10:09:01;9.80;;;8.80;;
2338;SDS011;1180;51.438;6.978;2023-05-15T10:11:28;12.20;;;10.90;;
2338;SDS011;1180;51.438;6.978;2023-05-15T10:13:54;10.83;;;9.83;;
2338;SDS011;1180;51.438;6.978;2023-05-15T10:16:21;11.43;;;10.23;;
2338;SDS011;1180;51.438;6.978;2023-05-15T10:18:47;10.53;;;9.43;;
2338;SDS011;1180;51.438;6.978;2023-05-15T10:21:15;9.90;;;8.87;;
2338;SDS011;1180;51.438;6.978;2023-05-15T10:23:43;11.23;;;9.80;;
2338;SDS011;1180;51.438;6.978;2023-05-15T10:26:13;10.73;;;9.70;;
2338;SDS011;1180;51.438;6.978;2023-05-15T10:28:45;9.63;;;8.63;;
2338;SDS011;1180;51.438;6.978;2023-05-15T10:31:12;12.80;;;10.97;;
2338;SDS011;1180;51.438;6.978;2023-05-15T10:33:37;10.30;;;7.80;;
2338;SDS011;1180;51.438;6.978;2023-05-15T10:36:04;10.57;;;9.40;;
2338;SDS011;1180;51.438;6.978;2023-05-15T10:38:31;10.53;;;9.23;;
2338;SDS011;1180;51.438;6.978;2023-05-15T10:40:59;9.50;;;8.60;;
2338;SDS011;1180;51.438;6.978;2023-05-15T10:43:25;7.87;;;7.17;;
2338;SDS011;1180;51.438;6.978;2023-05-15T10:45:52;10.67;;;8.33;;
2338;SDS011;1180;51.438;6.978;2023-05-15T10:48:19;7.77;;;6.90;;
2338;SDS011;1180;51.438;6.978;2023-05-15T10:50:47;11.10;;;8.13;;
2338;SDS011;1180;51.438;6.978;2023-05-15T10:53:13;8.60;;;7.10;;
2338;SDS011;1180;51.438;6.978;2023-05-15T10:55:38;8.70;;;7.80;;
2338;SDS011;1180;51.438;6.978;2023-05-15T10:58:08;9.00;;;8.10;;
2338;SDS011;1180;51.438;6.978;2023-05-15T11:00:35;8.00;;;7.20;;
2338;SDS011;1180;51.438;6.978;2023-05-15T11:03:06;8.60;;;6.93;;
2338;SDS011;1180;51.438;6.978;2023-05-15T11:06:05;7.20;;;6.50;;
2338;SDS011;1180;51.438;6.978;2023-05-15T11:08:37;8.20;;;6.17;;
2338;SDS011;1180;51.438;6.978;2023-05-15T11:11:03;9.27;;;8.30;;
2338;SDS011;1180;51.438;6.978;2023-05-15T11:22:16;9.33;;;8.30;;
2338;SDS011;1180;51.438;6.978;2023-05-15T11:27:19;7.70;;;6.97;;
2338;SDS011;1180;51.438;6.978;2023-05-15T11:37:42;5.70;;;5.10;;
2338;SDS011;1180;51.438;6.978;2023-05-15T11:43:15;6.30;;;5.27;;
2338;SDS011;1180;51.438;6.978;2023-05-15T11:45:51;6.67;;;6.07;;
2338;SDS011;1180;51.438;6.978;2023-05-15T11:48:29;6.67;;;5.50;;
2338;SDS011;1180;51.438;6.978;2023-05-15T11:50:56;7.20;;;6.60;;
2338;SDS011;1180;51.438;6.978;2023-05-15T11:53:21;6.90;;;6.20;;
2338;SDS011;1180;51.438;6.978;2023-05-15T11:55:48;6.53;;;5.83;;
2338;SDS011;1180;51.438;6.978;2023-05-15T11:58:17;5.50;;;5.00;;
2338;SDS011;1180;51.438;6.978;2023-05-15T12:00:44;5.70;;;5.20;;
2338;SDS011;1180;51.438;6.978;2023-05-15T12:03:23;5.40;;;4.80;;
2338;SDS011;1180;51.438;6.978;2023-05-15T12:05:50;4.67;;;4.27;;
2338;SDS011;1180;51.438;6.978;2023-05-15T12:08:17;9.20;;;6.17;;
2338;SDS011;1180;51.438;6.978;2023-05-15T12:10:45;7.67;;;5.20;;
2338;SDS011;1180;51.438;6.978;2023-05-15T12:13:11;5.30;;;4.80;;
2338;SDS011;1180;51.438;6.978;2023-05-15T12:15:41;5.80;;;5.10;;
2338;SDS011;1180;51.438;6.978;2023-05-15T12:18:08;5.57;;;4.83;;
2338;SDS011;1180;51.438;6.978;2023-05-15T12:20:34;4.93;;;4.40;;
2338;SDS011;1180;51.438;6.978;2023-05-15T12:23:02;8.00;;;7.20;;
2338;SDS011;1180;51.438;6.978;2023-05-15T12:25:28;9.23;;;7.60;;
2338;SDS011;1180;51.438;6.978;2023-05-15T12:27:54;7.20;;;6.50;;
2338;SDS011;1180;51.438;6.978;2023-05-15T12:30:20;8.00;;;7.30;;
2338;SDS011;1180;51.438;6.978;2023-05-15T12:32:46;7.63;;;6.90;;
2338;SDS011;1180;51.438;6.978;2023-05-15T12:35:12;7.17;;;6.27;;
2338;SDS011;1180;51.438;6.978;2023-05-15T12:37:38;7.47;;;5.60;;
2338;SDS011;1180;51.438;6.978;2023-05-15T12:40:04;7.20;;;6.37;;
2338;SDS011;1180;51.438;6.978;2023-05-15T12:42:37;7.33;;;5.80;;
2338;SDS011;1180;51.438;6.978;2023-05-15T12:45:10;7.60;;;6.43;;
2338;SDS011;1180;51.438;6.978;2023-05-15T12:47:37;8.10;;;7.37;;
2338;SDS011;1180;51.438;6.978;2023-05-15T12:50:10;10.20;;;8.60;;
2338;SDS011;1180;51.438;6.978;2023-05-15T12:52:37;10.80;;;7.53;;
2338;SDS011;1180;51.438;6.978;2023-05-15T12:55:02;9.63;;;7.67;;
2338;SDS011;1180;51.438;6.978;2023-05-15T12:57:28;9.10;;;8.17;;
2338;SDS011;1180;51.438;6.978;2023-05-15T12:59:53;7.87;;;7.17;;
2338;SDS011;1180;51.438;6.978;2023-05-15T13:02:19;7.97;;;7.23;;
2338;SDS011;1180;51.438;6.978;2023-05-15T13:04:47;7.07;;;6.37;;
2338;SDS011;1180;51.438;6.978;2023-05-15T13:07:16;9.13;;;8.30;;
2338;SDS011;1180;51.438;6.978;2023-05-15T13:09:41;6.53;;;5.93;;
2338;SDS011;1180;51.438;6.978;2023-05-15T13:12:07;6.90;;;6.20;;
2338;SDS011;1180;51.438;6.978;2023-05-15T13:14:33;7.67;;;6.87;;
2338;SDS011;1180;51.438;6.978;2023-05-15T13:16:59;7.67;;;6.83;;
2338;SDS011;1180;51.438;6.978;2023-05-15T13:19:26;9.13;;;8.33;;
2338;SDS011;1180;51.438;6.978;2023-05-15T13:21:52;10.00;;;8.63;;
2338;SDS011;1180;51.438;6.978;2023-05-15T13:24:17;16.07;;;14.37;;
2338;SDS011;1180;51.438;6.978;2023-05-15T13:26:43;16.40;;;11.57;;
2338;SDS011;1180;51.438;6.978;2023-05-15T13:29:08;12.10;;;10.57;;
2338;SDS011;1180;51.438;6.978;2023-05-15T13:31:34;12.87;;;11.53;;
2338;SDS011;1180;51.438;6.978;2023-05-15T13:33:59;11.60;;;9.93;;
2338;SDS011;1180;51.438;6.978;2023-05-15T13:36:24;10.83;;;8.73;;
2338;SDS011;1180;51.438;6.978;2023-05-15T13:38:50;8.90;;;7.80;;
2338;SDS011;1180;51.438;6.978;2023-05-15T13:41:15;11.30;;;10.20;;
2338;SDS011;1180;51.438;6.978;2023-05-15T13:43:40;14.63;;;13.13;;
2338;SDS011;1180;51.438;6.978;2023-05-15T13:46:06;17.63;;;15.40;;
2338;SDS011;1180;51.438;6.978;2023-05-15T13:48:31;16.60;;;14.83;;
2338;SDS011;1180;51.438;6.978;2023-05-15T13:50:57;14.17;;;12.80;;
2338;SDS011;1180;51.438;6.978;2023-05-15T13:53:22;19.30;;;16.67;;
2338;SDS011;1180;51.438;6.978;2023-05-15T13:55:47;16.67;;;15.07;;
2338;SDS011;1180;51.438;6.978;2023-05-15T13:58:13;13.80;;;12.40;;
2338;SDS011;1180;51.438;6.978;2023-05-15T14:00:40;14.40;;;12.63;;
2338;SDS011;1180;51.438;6.978;2023-05-15T14:03:07;16.23;;;14.63;;
2338;SDS011;1180;51.438;6.978;2023-05-15T14:05:32;16.87;;;13.90;;
2338;SDS011;1180;51.438;6.978;2023-05-15T14:07:58;13.50;;;11.10;;
2338;SDS011;1180;51.438;6.978;2023-05-15T14:10:23;14.10;;;12.70;;
2338;SDS011;1180;51.438;6.978;2023-05-15T14:12:49;13.10;;;11.80;;
2338;SDS011;1180;51.438;6.978;2023-05-15T14:15:14;14.20;;;12.80;;
2338;SDS011;1180;51.438;6.978;2023-05-15T14:17:40;14.67;;;13.17;;
2338;SDS011;1180;51.438;6.978;2023-05-15T14:20:06;13.97;;;12.50;;
2338;SDS011;1180;51.438;6.978;2023-05-15T14:22:34;15.30;;;13.70;;
2338;SDS011;1180;51.438;6.978;2023-05-15T14:24:59;14.37;;;13.00;;
2338;SDS011;1180;51.438;6.978;2023-05-15T14:27:25;13.43;;;12.13;;
2338;SDS011;1180;51.438;6.978;2023-05-15T14:29:50;11.90;;;10.70;;
2338;SDS011;1180;51.438;6.978;2023-05-15T14:32:15;13.60;;;12.40;;
2338;SDS011;1180;51.438;6.978;2023-05-15T14:34:41;11.73;;;10.60;;
2338;SDS011;1180;51.438;6.978;2023-05-15T14:37:06;10.57;;;9.50;;
2338;SDS011;1180;51.438;6.978;2023-05-15T14:39:31;12.87;;;10.90;;
2338;SDS011;1180;51.438;6.978;2023-05-15T14:41:57;12.83;;;9.60;;
2338;SDS011;1180;51.438;6.978;2023-05-15T14:44:22;11.57;;;10.57;;
2338;SDS011;1180;51.438;6.978;2023-05-15T14:46:49;14.27;;;12.57;;
2338;SDS011;1180;51.438;6.978;2023-05-15T14:49:29;14.37;;;12.87;;
2338;SDS011;1180;51.438;6.978;2023-05-15T14:51:55;17.20;;;13.40;;
2338;SDS011;1180;51.438;6.978;2023-05-15T14:54:20;14.13;;;12.90;;
2338;SDS011;1180;51.438;6.978;2023-05-15T14:56:46;12.63;;;11.40;;
2338;SDS011;1180;51.438;6.978;2023-05-15T14:59:12;11.97;;;10.73;;
2338;SDS011;1180;51.438;6.978;2023-05-15T15:01:38;14.30;;;12.90;;
2338;SDS011;1180;51.438;6.978;2023-05-15T15:04:03;12.80;;;10.93;;
2338;SDS011;1180;51.438;6.978;2023-05-15T15:06:30;12.63;;;11.30;;
2338;SDS011;1180;51.438;6.978;2023-05-15T15:08:55;12.17;;;11.00;;
2338;SDS011;1180;51.438;6.978;2023-05-15T15:11:21;12.57;;;11.27;;
2338;SDS011;1180;51.438;6.978;2023-05-15T15:13:46;14.00;;;12.70;;
2338;SDS011;1180;51.438;6.978;2023-05-15T15:16:11;16.03;;;14.33;;
2338;SDS011;1180;51.438;6.978;2023-05-15T15:18:37;17.97;;;16.07;;
2338;SDS011;1180;51.438;6.978;2023-05-15T15:21:02;14.63;;;13.13;;
2338;SDS011;1180;51.438;6.978;2023-05-15T15:23:28;17.10;;;15.00;;
2338;SDS011;1180;51.438;6.978;2023-05-15T15:25:53;17.33;;;13.53;;